CheckWX is a tool to help pilots better visualize weather data.  It is not intended as a substitute for an official pre-flight weather briefing.

12:07:24 UTC

EBAW TAF
Antwerp International (Deurne) Airport
Antwerp, Belgium
TAF EBAW 201110Z 2012/2021 27007KT 9999 SCT035 PROB30 TEMPO 2012/2016 4000 SHRA

Aug-20@
12:00 UTC

Aug-20 @ 12:00 UTC

Aug-20@
21:00 UTC

Aug-20 @ 21:00 UTC

TAF EBAW 201110Z 2012/2021 27007KT 9999 SCT035
Wind
  • 270° at 7 KTS
Cloud Levels
  • Scattered at 3,500' AGL

Aug-20@
12:00 UTC

Aug-20 @ 12:00 UTC

Aug-20@
16:00 UTC

Aug-20 @ 16:00 UTC

PROB30 TEMPO 2012/2016 4000 SHRA

Temporary - 30% Likelihood

Temporary - 30% Likelihood during this time.

Conditions
Rain